SWA1872 KSTL-KOMA
Flight info
| Callsign | SWA1872 |
|---|---|
| Flight time | 0h 55m |
| Altitude | 34000 |
| Route | WHRLI7 MCM LMN MARWI4 |
| Aircraft | B738/M-SDE2E3FGHIRWXY/LB1 |
Departure
| Time | 2026-04-29 22:00 |
|---|---|
| Airport | St. Louis Lambert International Airport (KSTL) |
Arrival
| Time | 2026-04-29 22:56 |
|---|---|
| Airport | Eppley Airfield (KOMA) |
| Time | Latitude | Longitude | Altitude | Speed | Heading |
|---|---|---|---|---|---|
| 2026-04-29 21:37 | 38.73781 | -90.35508 | 551 ft | 0 kts | 212° |
| 2026-04-29 21:51 | 38.73782 | -90.35508 | 551 ft | 0 kts | 212° |
| 2026-04-29 21:52 | 38.73789 | -90.35502 | 550 ft | 2 kts | 212° |
| 2026-04-29 21:53 | 38.73799 | -90.35493 | 550 ft | 0 kts | 212° |
| 2026-04-29 21:53 | 38.73810 | -90.35486 | 549 ft | 2 kts | 192° |
| 2026-04-29 21:53 | 38.73825 | -90.35485 | 549 ft | 2 kts | 169° |
| 2026-04-29 21:53 | 38.73839 | -90.35493 | 548 ft | 2 kts | 145° |
| 2026-04-29 21:54 | 38.73848 | -90.35503 | 548 ft | 0 kts | 125° |
| 2026-04-29 21:54 | 38.73852 | -90.35511 | 548 ft | 1 kts | 122° |
| 2026-04-29 21:54 | 38.73852 | -90.35512 | 548 ft | 0 kts | 122° |
| 2026-04-29 21:56 | 38.73843 | -90.35493 | 549 ft | 7 kts | 122° |
| 2026-04-29 21:56 | 38.73798 | -90.35400 | 551 ft | 13 kts | 122° |
| 2026-04-29 21:56 | 38.73768 | -90.35337 | 553 ft | 1 kts | 121° |
| 2026-04-29 21:57 | 38.73771 | -90.35327 | 553 ft | 4 kts | 31° |
| 2026-04-29 21:57 | 38.73826 | -90.35287 | 553 ft | 12 kts | 31° |
| 2026-04-29 21:57 | 38.73891 | -90.35235 | 553 ft | 9 kts | 43° |
| 2026-04-29 21:57 | 38.73892 | -90.35161 | 554 ft | 11 kts | 122° |
| 2026-04-29 21:58 | 38.73832 | -90.35039 | 560 ft | 15 kts | 122° |
| 2026-04-29 21:58 | 38.73783 | -90.34944 | 566 ft | 9 kts | 123° |
| 2026-04-29 21:58 | 38.73743 | -90.34864 | 570 ft | 14 kts | 122° |
| 2026-04-29 21:58 | 38.73703 | -90.34761 | 577 ft | 9 kts | 91° |
| 2026-04-29 21:59 | 38.73732 | -90.34708 | 580 ft | 8 kts | 36° |
| 2026-04-29 21:59 | 38.73809 | -90.34705 | 578 ft | 18 kts | 311° |
| 2026-04-29 21:59 | 38.73953 | -90.34997 | 559 ft | 74 kts | 302° |
| 2026-04-29 21:59 | 38.74362 | -90.35832 | 546 ft | 145 kts | 303° |
| 2026-04-29 22:00 | 38.74956 | -90.37058 | 1036 ft | 166 kts | 304° |
| 2026-04-29 22:00 | 38.75536 | -90.38263 | 2009 ft | 159 kts | 306° |
| 2026-04-29 22:00 | 38.76121 | -90.39455 | 2681 ft | 162 kts | 306° |
| 2026-04-29 22:00 | 38.76749 | -90.40686 | 3182 ft | 175 kts | 307° |
| 2026-04-29 22:01 | 38.77443 | -90.42061 | 3684 ft | 191 kts | 306° |
| 2026-04-29 22:01 | 38.78172 | -90.43552 | 4222 ft | 207 kts | 304° |
| 2026-04-29 22:01 | 38.78954 | -90.45155 | 4775 ft | 223 kts | 304° |
| 2026-04-29 22:01 | 38.79813 | -90.46877 | 5397 ft | 235 kts | 305° |
| 2026-04-29 22:02 | 38.80723 | -90.48676 | 5959 ft | 250 kts | 305° |
| 2026-04-29 22:02 | 38.81688 | -90.50582 | 6756 ft | 256 kts | 304° |
| 2026-04-29 22:02 | 38.82631 | -90.52453 | 7712 ft | 253 kts | 303° |
| 2026-04-29 22:02 | 38.83579 | -90.54340 | 8631 ft | 252 kts | 302° |
| 2026-04-29 22:03 | 38.84519 | -90.56205 | 9456 ft | 254 kts | 302° |
| 2026-04-29 22:03 | 38.85471 | -90.58099 | 10302 ft | 255 kts | 301° |
| 2026-04-29 22:03 | 38.86449 | -90.60052 | 10847 ft | 267 kts | 301° |
| 2026-04-29 22:03 | 38.87473 | -90.62094 | 11361 ft | 281 kts | 301° |
| 2026-04-29 22:04 | 38.88551 | -90.64247 | 11895 ft | 294 kts | 301° |
| 2026-04-29 22:04 | 38.89673 | -90.66486 | 12633 ft | 299 kts | 300° |
| 2026-04-29 22:04 | 38.90777 | -90.68685 | 13635 ft | 296 kts | 299° |
| 2026-04-29 22:04 | 38.91892 | -90.70909 | 14484 ft | 299 kts | 299° |
| 2026-04-29 22:05 | 38.93015 | -90.73154 | 15273 ft | 304 kts | 298° |
| 2026-04-29 22:05 | 38.94163 | -90.75452 | 16017 ft | 309 kts | 298° |
| 2026-04-29 22:05 | 38.96487 | -90.80106 | 17556 ft | 315 kts | 298° |
| 2026-04-29 22:06 | 38.97675 | -90.82484 | 18299 ft | 319 kts | 298° |
| 2026-04-29 22:06 | 38.98872 | -90.84880 | 19029 ft | 321 kts | 298° |
| 2026-04-29 22:06 | 39.00070 | -90.87285 | 19689 ft | 325 kts | 298° |
| 2026-04-29 22:06 | 39.01292 | -90.89738 | 20417 ft | 327 kts | 297° |
| 2026-04-29 22:07 | 39.02511 | -90.92188 | 21106 ft | 329 kts | 297° |
| 2026-04-29 22:07 | 39.03741 | -90.94667 | 21715 ft | 333 kts | 297° |
| 2026-04-29 22:07 | 39.04995 | -90.97191 | 22324 ft | 337 kts | 296° |
| 2026-04-29 22:07 | 39.06251 | -90.99719 | 23002 ft | 336 kts | 296° |
| 2026-04-29 22:08 | 39.07514 | -91.02261 | 23513 ft | 339 kts | 296° |
| 2026-04-29 22:08 | 39.08787 | -91.04829 | 24072 ft | 341 kts | 296° |
| 2026-04-29 22:08 | 39.10051 | -91.07383 | 24626 ft | 342 kts | 296° |
| 2026-04-29 22:08 | 39.11271 | -91.10000 | 25131 ft | 342 kts | 294° |
| 2026-04-29 22:09 | 39.12404 | -91.12656 | 25643 ft | 343 kts | 292° |
| 2026-04-29 22:09 | 39.13526 | -91.15376 | 26176 ft | 343 kts | 292° |
| 2026-04-29 22:09 | 39.14644 | -91.18098 | 26758 ft | 342 kts | 292° |
| 2026-04-29 22:09 | 39.15746 | -91.20768 | 27210 ft | 344 kts | 292° |
| 2026-04-29 22:10 | 39.16883 | -91.23505 | 27627 ft | 347 kts | 292° |
| 2026-04-29 22:10 | 39.18012 | -91.26254 | 28095 ft | 347 kts | 291° |
| 2026-04-29 22:10 | 39.19107 | -91.29001 | 28571 ft | 347 kts | 291° |
| 2026-04-29 22:10 | 39.20205 | -91.31789 | 29054 ft | 347 kts | 290° |
| 2026-04-29 22:11 | 39.21289 | -91.34547 | 29427 ft | 350 kts | 290° |
| 2026-04-29 22:11 | 39.22382 | -91.37341 | 29722 ft | 354 kts | 290° |
| 2026-04-29 22:11 | 39.23499 | -91.40192 | 30145 ft | 355 kts | 290° |
| 2026-04-29 22:11 | 39.24609 | -91.42999 | 30587 ft | 354 kts | 291° |
| 2026-04-29 22:12 | 39.25717 | -91.45815 | 30920 ft | 356 kts | 290° |
| 2026-04-29 22:12 | 39.26849 | -91.48701 | 31179 ft | 359 kts | 290° |
| 2026-04-29 22:12 | 39.27969 | -91.51558 | 31521 ft | 360 kts | 291° |
| 2026-04-29 22:12 | 39.29106 | -91.54451 | 31813 ft | 362 kts | 291° |
| 2026-04-29 22:13 | 39.30236 | -91.57322 | 32282 ft | 359 kts | 291° |
| 2026-04-29 22:13 | 39.31360 | -91.60178 | 32785 ft | 355 kts | 291° |
| 2026-04-29 22:13 | 39.32467 | -91.62993 | 33195 ft | 354 kts | 291° |
| 2026-04-29 22:13 | 39.33570 | -91.65811 | 33509 ft | 354 kts | 291° |
| 2026-04-29 22:14 | 39.34681 | -91.68651 | 33880 ft | 353 kts | 291° |
| 2026-04-29 22:14 | 39.35796 | -91.71506 | 34052 ft | 355 kts | 291° |
| 2026-04-29 22:14 | 39.36927 | -91.74412 | 34069 ft | 361 kts | 291° |
| 2026-04-29 22:15 | 39.39251 | -91.80379 | 34073 ft | 368 kts | 291° |
| 2026-04-29 22:15 | 39.41575 | -91.86337 | 34071 ft | 366 kts | 292° |
| 2026-04-29 22:16 | 39.43920 | -91.92369 | 34072 ft | 366 kts | 291° |
| 2026-04-29 22:16 | 39.46205 | -91.98251 | 34070 ft | 366 kts | 292° |
| 2026-04-29 22:17 | 39.48490 | -92.04148 | 34072 ft | 368 kts | 291° |
| 2026-04-29 22:17 | 39.50780 | -92.10076 | 34076 ft | 367 kts | 292° |
| 2026-04-29 22:18 | 39.53059 | -92.15983 | 34077 ft | 367 kts | 292° |
| 2026-04-29 22:18 | 39.55324 | -92.21870 | 34081 ft | 370 kts | 291° |
| 2026-04-29 22:19 | 39.57618 | -92.27840 | 34082 ft | 369 kts | 291° |
| 2026-04-29 22:19 | 39.59903 | -92.33794 | 34084 ft | 370 kts | 291° |
| 2026-04-29 22:20 | 39.62201 | -92.39793 | 34086 ft | 372 kts | 291° |
| 2026-04-29 22:20 | 39.64507 | -92.45740 | 34084 ft | 370 kts | 293° |
| 2026-04-29 22:21 | 39.67357 | -92.51374 | 34085 ft | 380 kts | 301° |
| 2026-04-29 22:21 | 39.70749 | -92.56655 | 34084 ft | 382 kts | 303° |
| 2026-04-29 22:22 | 39.74223 | -92.61900 | 34087 ft | 382 kts | 303° |
| 2026-04-29 22:22 | 39.77629 | -92.67094 | 34090 ft | 379 kts | 303° |
| 2026-04-29 22:23 | 39.81044 | -92.72360 | 34091 ft | 381 kts | 303° |
| 2026-04-29 22:23 | 39.84439 | -92.77619 | 34092 ft | 380 kts | 302° |
| 2026-04-29 22:24 | 39.87844 | -92.82914 | 34092 ft | 381 kts | 303° |
| 2026-04-29 22:24 | 39.91235 | -92.88194 | 34093 ft | 383 kts | 303° |
| 2026-04-29 22:25 | 39.94630 | -92.93495 | 34093 ft | 384 kts | 303° |
| 2026-04-29 22:25 | 39.98065 | -92.98861 | 34093 ft | 383 kts | 303° |
| 2026-04-29 22:26 | 40.01479 | -93.04200 | 34092 ft | 384 kts | 303° |
| 2026-04-29 22:26 | 40.04886 | -93.09543 | 34094 ft | 386 kts | 303° |
| 2026-04-29 22:27 | 40.08323 | -93.14943 | 34095 ft | 386 kts | 303° |
| 2026-04-29 22:27 | 40.11729 | -93.20297 | 34090 ft | 385 kts | 303° |
| 2026-04-29 22:28 | 40.15168 | -93.25720 | 34091 ft | 387 kts | 303° |
| 2026-04-29 22:28 | 40.18583 | -93.31113 | 34093 ft | 386 kts | 303° |
| 2026-04-29 22:29 | 40.21449 | -93.35644 | 34095 ft | 388 kts | 303° |
| 2026-04-29 22:29 | 40.25456 | -93.41987 | 34094 ft | 388 kts | 303° |
| 2026-04-29 22:30 | 40.28883 | -93.47427 | 34091 ft | 389 kts | 303° |
| 2026-04-29 22:30 | 40.32297 | -93.52853 | 34096 ft | 388 kts | 303° |
| 2026-04-29 22:31 | 40.35739 | -93.58343 | 34094 ft | 392 kts | 303° |
| 2026-04-29 22:31 | 40.39183 | -93.63838 | 34095 ft | 391 kts | 303° |
| 2026-04-29 22:32 | 40.42638 | -93.69360 | 34096 ft | 393 kts | 303° |
| 2026-04-29 22:32 | 40.46082 | -93.74880 | 34087 ft | 392 kts | 303° |
| 2026-04-29 22:33 | 40.49529 | -93.80410 | 34096 ft | 393 kts | 303° |
| 2026-04-29 22:33 | 40.52990 | -93.85967 | 34108 ft | 394 kts | 303° |
| 2026-04-29 22:34 | 40.56444 | -93.91529 | 34100 ft | 393 kts | 303° |
| 2026-04-29 22:34 | 40.59419 | -93.97440 | 34107 ft | 388 kts | 291° |
| 2026-04-29 22:35 | 40.61026 | -94.04118 | 34109 ft | 383 kts | 281° |
| 2026-04-29 22:35 | 40.62137 | -94.10958 | 34102 ft | 384 kts | 280° |
| 2026-04-29 22:36 | 40.63221 | -94.17809 | 34084 ft | 375 kts | 281° |
| 2026-04-29 22:36 | 40.63751 | -94.21098 | 33895 ft | 365 kts | 281° |
| 2026-04-29 22:36 | 40.64276 | -94.24332 | 33522 ft | 362 kts | 281° |
| 2026-04-29 22:36 | 40.64805 | -94.27570 | 32937 ft | 364 kts | 281° |
| 2026-04-29 22:37 | 40.65337 | -94.30839 | 32143 ft | 368 kts | 281° |
| 2026-04-29 22:37 | 40.65873 | -94.34129 | 31313 ft | 373 kts | 281° |
| 2026-04-29 22:37 | 40.66418 | -94.37475 | 30610 ft | 377 kts | 281° |
| 2026-04-29 22:37 | 40.66970 | -94.40854 | 29936 ft | 384 kts | 281° |
| 2026-04-29 22:38 | 40.67536 | -94.44315 | 29243 ft | 386 kts | 282° |
| 2026-04-29 22:38 | 40.68089 | -94.47696 | 28568 ft | 383 kts | 282° |
| 2026-04-29 22:38 | 40.68650 | -94.51138 | 27875 ft | 380 kts | 282° |
| 2026-04-29 22:38 | 40.69194 | -94.54490 | 27195 ft | 377 kts | 282° |
| 2026-04-29 22:39 | 40.69734 | -94.57821 | 26516 ft | 373 kts | 282° |
| 2026-04-29 22:39 | 40.70267 | -94.61123 | 25836 ft | 370 kts | 282° |
| 2026-04-29 22:39 | 40.70795 | -94.64403 | 25154 ft | 367 kts | 282° |
| 2026-04-29 22:39 | 40.71326 | -94.67702 | 24452 ft | 364 kts | 281° |
| 2026-04-29 22:40 | 40.71841 | -94.70906 | 23765 ft | 361 kts | 281° |
| 2026-04-29 22:40 | 40.72358 | -94.74126 | 23092 ft | 358 kts | 282° |
| 2026-04-29 22:40 | 40.72870 | -94.77322 | 22428 ft | 356 kts | 282° |
| 2026-04-29 22:40 | 40.73370 | -94.80455 | 21768 ft | 354 kts | 282° |
| 2026-04-29 22:41 | 40.73872 | -94.83602 | 21105 ft | 351 kts | 282° |
| 2026-04-29 22:41 | 40.74369 | -94.86721 | 20439 ft | 349 kts | 282° |
| 2026-04-29 22:41 | 40.74864 | -94.89833 | 19781 ft | 347 kts | 283° |
| 2026-04-29 22:41 | 40.75355 | -94.92923 | 19105 ft | 345 kts | 283° |
| 2026-04-29 22:42 | 40.75840 | -94.95985 | 18437 ft | 343 kts | 283° |
| 2026-04-29 22:42 | 40.76325 | -94.99049 | 17789 ft | 341 kts | 283° |
| 2026-04-29 22:42 | 40.76804 | -95.02080 | 17141 ft | 339 kts | 283° |
| 2026-04-29 22:42 | 40.77307 | -95.05121 | 16481 ft | 337 kts | 286° |
| 2026-04-29 22:43 | 40.78015 | -95.08035 | 15828 ft | 334 kts | 294° |
| 2026-04-29 22:43 | 40.79124 | -95.10683 | 15181 ft | 331 kts | 303° |
| 2026-04-29 22:43 | 40.80481 | -95.13115 | 14528 ft | 330 kts | 308° |
| 2026-04-29 22:43 | 40.81918 | -95.15456 | 13876 ft | 328 kts | 309° |
| 2026-04-29 22:44 | 40.83361 | -95.17764 | 13217 ft | 326 kts | 309° |
| 2026-04-29 22:44 | 40.84787 | -95.20068 | 12572 ft | 325 kts | 309° |
| 2026-04-29 22:44 | 40.86187 | -95.22366 | 11954 ft | 321 kts | 309° |
| 2026-04-29 22:44 | 40.87552 | -95.24627 | 11367 ft | 310 kts | 309° |
| 2026-04-29 22:45 | 40.88867 | -95.26820 | 10787 ft | 301 kts | 309° |
| 2026-04-29 22:45 | 40.90142 | -95.28951 | 10209 ft | 293 kts | 309° |
| 2026-04-29 22:45 | 40.91386 | -95.31031 | 9795 ft | 281 kts | 309° |
| 2026-04-29 22:45 | 40.92545 | -95.32970 | 9735 ft | 259 kts | 309° |
| 2026-04-29 22:46 | 40.93617 | -95.34766 | 9640 ft | 245 kts | 309° |
| 2026-04-29 22:46 | 40.94672 | -95.36531 | 9395 ft | 246 kts | 309° |
| 2026-04-29 22:46 | 40.95735 | -95.38309 | 9043 ft | 246 kts | 309° |
| 2026-04-29 22:46 | 40.96788 | -95.40072 | 8724 ft | 244 kts | 309° |
| 2026-04-29 22:47 | 40.97846 | -95.41846 | 8403 ft | 246 kts | 309° |
| 2026-04-29 22:47 | 40.98902 | -95.43619 | 8076 ft | 246 kts | 308° |
| 2026-04-29 22:47 | 40.99870 | -95.45490 | 7746 ft | 247 kts | 303° |
| 2026-04-29 22:47 | 41.00753 | -95.47451 | 7420 ft | 248 kts | 301° |
| 2026-04-29 22:48 | 41.01614 | -95.49435 | 7089 ft | 248 kts | 301° |
| 2026-04-29 22:48 | 41.02475 | -95.51390 | 6758 ft | 248 kts | 301° |
| 2026-04-29 22:48 | 41.03363 | -95.53375 | 6427 ft | 250 kts | 302° |
| 2026-04-29 22:48 | 41.04256 | -95.55361 | 6099 ft | 249 kts | 302° |
| 2026-04-29 22:49 | 41.05132 | -95.57307 | 5773 ft | 248 kts | 302° |
| 2026-04-29 22:49 | 41.06014 | -95.59274 | 5439 ft | 248 kts | 302° |
| 2026-04-29 22:49 | 41.06881 | -95.61217 | 5125 ft | 246 kts | 302° |
| 2026-04-29 22:49 | 41.07758 | -95.63184 | 4805 ft | 244 kts | 302° |
| 2026-04-29 22:50 | 41.08605 | -95.65089 | 4610 ft | 236 kts | 301° |
| 2026-04-29 22:50 | 41.09406 | -95.66894 | 4553 ft | 223 kts | 301° |
| 2026-04-29 22:50 | 41.10169 | -95.68610 | 4486 ft | 209 kts | 301° |
| 2026-04-29 22:50 | 41.10899 | -95.70248 | 4416 ft | 202 kts | 301° |
| 2026-04-29 22:51 | 41.11644 | -95.71817 | 4330 ft | 204 kts | 308° |
| 2026-04-29 22:51 | 41.12674 | -95.73079 | 4118 ft | 200 kts | 326° |
| 2026-04-29 22:51 | 41.14951 | -95.75043 | 3805 ft | 191 kts | 325° |
| 2026-04-29 22:52 | 41.16039 | -95.76066 | 3664 ft | 191 kts | 324° |
| 2026-04-29 22:52 | 41.17113 | -95.77084 | 3523 ft | 190 kts | 324° |
| 2026-04-29 22:52 | 41.18201 | -95.78110 | 3351 ft | 191 kts | 324° |
| 2026-04-29 22:52 | 41.19281 | -95.79134 | 3166 ft | 191 kts | 324° |
| 2026-04-29 22:53 | 41.20352 | -95.80147 | 2994 ft | 190 kts | 324° |
| 2026-04-29 22:53 | 41.21432 | -95.81170 | 2828 ft | 190 kts | 324° |
| 2026-04-29 22:53 | 41.22463 | -95.82145 | 2654 ft | 178 kts | 324° |
| 2026-04-29 22:53 | 41.23445 | -95.83070 | 2386 ft | 167 kts | 324° |
| 2026-04-29 22:54 | 41.24358 | -95.83934 | 2170 ft | 153 kts | 324° |
| 2026-04-29 22:54 | 41.25194 | -95.84731 | 1954 ft | 142 kts | 324° |
| 2026-04-29 22:54 | 41.25977 | -95.85476 | 1763 ft | 139 kts | 324° |
| 2026-04-29 22:54 | 41.26759 | -95.86222 | 1589 ft | 138 kts | 324° |
| 2026-04-29 22:55 | 41.27555 | -95.86973 | 1410 ft | 142 kts | 325° |
| 2026-04-29 22:55 | 41.28361 | -95.87740 | 1216 ft | 143 kts | 324° |
| 2026-04-29 22:55 | 41.29169 | -95.88509 | 1040 ft | 144 kts | 324° |
| 2026-04-29 22:55 | 41.29965 | -95.89263 | 983 ft | 128 kts | 325° |
| 2026-04-29 22:56 | 41.30462 | -95.89732 | 982 ft | 42 kts | 326° |
| 2026-04-29 22:56 | 41.30554 | -95.89856 | 982 ft | 11 kts | 263° |
| 2026-04-29 22:56 | 41.30523 | -95.89919 | 981 ft | 4 kts | 234° |
| 2026-04-29 22:56 | 41.30513 | -95.89933 | 981 ft | 4 kts | 209° |
| 2026-04-29 22:57 | 41.30465 | -95.89913 | 981 ft | 9 kts | 144° |
| 2026-04-29 22:57 | 41.30401 | -95.89854 | 981 ft | 11 kts | 146° |
| 2026-04-29 22:57 | 41.30344 | -95.89800 | 981 ft | 8 kts | 144° |
| 2026-04-29 22:57 | 41.30295 | -95.89753 | 981 ft | 9 kts | 143° |
| 2026-04-29 22:58 | 41.30227 | -95.89689 | 981 ft | 13 kts | 144° |
| 2026-04-29 22:58 | 41.30160 | -95.89625 | 981 ft | 11 kts | 145° |
| 2026-04-29 22:58 | 41.30078 | -95.89602 | 981 ft | 15 kts | 179° |
| 2026-04-29 22:58 | 41.29996 | -95.89646 | 981 ft | 13 kts | 262° |
| 2026-04-29 22:59 | 41.30036 | -95.89687 | 981 ft | 6 kts | 353° |
| 2026-04-29 22:59 | 41.30080 | -95.89685 | 981 ft | 6 kts | 1° |
| 2026-04-29 22:59 | 41.30122 | -95.89688 | 981 ft | 6 kts | 344° |
| 2026-04-29 22:59 | 41.30173 | -95.89731 | 981 ft | 9 kts | 323° |
| 2026-04-29 23:00 | 41.30222 | -95.89780 | 981 ft | 8 kts | 322° |
| 2026-04-29 23:00 | 41.30220 | -95.89835 | 981 ft | 7 kts | 206° |
| 2026-04-29 23:00 | 41.30177 | -95.89847 | 981 ft | 1 kts | 188° |
| 2026-04-29 23:00 | 41.30176 | -95.89848 | 981 ft | 0 kts | 188° |